Time;durP1;ratioP1;P1;durP2;ratioP2;P2;SDS_P1;SDS_P2;PMS_P1;PMS_P2;Temp;Humidity;BMP_temperature;BMP_pressure;BME280_temperature;BME280_humidity;BME280_pressure;Samples;Min_cycle;Max_cycle;Signal;HPM_P1;HPM_P2
2023/12/30 00:00:01;;;;;;;7.07;2.38;;;;;;;9.95;76.77;100453.97;4163725;28;20049;-66
2023/12/30 00:02:07;;;;;;;7.93;2.85;;;;;;;9.95;77.34;100466.94;4164092;28;20045;-67
2023/12/30 00:04:10;;;;;;;4.57;1.73;;;;;;;9.99;76.82;100474.78;4162998;28;20045;-66
2023/12/30 00:06:15;;;;;;;3.00;1.52;;;;;;;10.00;77.02;100474.81;4163797;28;20048;-66
2023/12/30 00:08:18;;;;;;;4.00;1.70;;;;;;;10.06;76.78;100469.75;4163962;28;20045;-66
2023/12/30 00:10:22;;;;;;;5.00;1.60;;;;;;;10.14;77.02;100467.25;4164126;28;20143;-65
2023/12/30 00:12:25;;;;;;;6.25;1.95;;;;;;;10.32;76.38;100458.88;4164035;28;20069;-66
2023/12/30 00:14:28;;;;;;;11.50;2.78;;;;;;;10.35;77.05;100451.16;4162738;28;20140;-65
2023/12/30 00:16:31;;;;;;;20.20;2.42;;;;;;;10.24;77.21;100456.16;4162561;28;20045;-65
2023/12/30 00:18:35;;;;;;;14.40;3.25;;;;;;;10.20;76.79;100454.34;4163930;28;20037;-65
2023/12/30 00:20:38;;;;;;;7.73;1.90;;;;;;;10.16;77.23;100459.50;4164043;28;20450;-65
2023/12/30 00:22:41;;;;;;;5.72;2.25;;;;;;;10.13;77.19;100460.31;4163857;28;20458;-65
2023/12/30 00:24:44;;;;;;;7.60;1.60;;;;;;;10.12;77.16;100464.63;4162671;28;20052;-65
2023/12/30 00:26:48;;;;;;;4.00;1.67;;;;;;;10.11;77.10;100467.22;4163690;28;20041;-66
2023/12/30 00:28:51;;;;;;;4.47;1.70;;;;;;;10.18;76.68;100468.16;4164109;28;20065;-66
2023/12/30 00:30:54;;;;;;;3.55;1.23;;;;;;;10.15;76.52;100469.00;4163805;28;20553;-66
2023/12/30 00:32:57;;;;;;;4.85;1.33;;;;;;;10.02;76.31;100467.06;4162763;28;20144;-66
2023/12/30 00:35:00;;;;;;;6.63;1.58;;;;;;;10.01;75.74;100466.19;4162497;28;20072;-66
2023/12/30 00:37:03;;;;;;;4.85;1.50;;;;;;;9.98;76.03;100466.13;4162661;28;20080;-66
2023/12/30 00:39:06;;;;;;;6.13;1.50;;;;;;;9.95;75.09;100473.88;4162687;28;20128;-66
2023/12/30 00:41:08;;;;;;;4.03;1.60;;;;;;;9.94;75.10;100478.22;4162789;28;20504;-65
2023/12/30 00:43:13;;;;;;;4.20;1.20;;;;;;;10.02;74.64;100480.91;4162463;28;20151;-65
2023/12/30 00:45:16;;;;;;;6.40;1.50;;;;;;;9.95;74.02;100486.84;4162526;28;20450;-67
2023/12/30 00:47:19;;;;;;;7.55;1.50;;;;;;;9.93;74.37;100479.03;4162840;28;20507;-66
2023/12/30 00:49:22;;;;;;;5.30;1.25;;;;;;;9.96;73.86;100484.28;4162694;28;20922;-66
2023/12/30 00:51:25;;;;;;;3.70;1.17;;;;;;;10.08;72.67;100487.94;4163902;28;20037;-66
2023/12/30 00:53:28;;;;;;;4.68;1.25;;;;;;;10.12;71.37;100488.03;4162665;28;20049;-65
2023/12/30 00:55:31;;;;;;;3.83;1.50;;;;;;;10.12;71.51;100495.81;4162397;28;20045;-66
2023/12/30 00:57:34;;;;;;;3.40;1.10;;;;;;;10.13;71.37;100505.38;4162623;28;20049;-66
2023/12/30 00:59:38;;;;;;;2.92;1.27;;;;;;;10.21;70.73;100497.69;4164922;28;20041;-66
2023/12/30 01:01:41;;;;;;;3.47;1.20;;;;;;;10.25;70.06;100498.59;4164953;28;20514;-66
2023/12/30 01:03:43;;;;;;;4.78;1.60;;;;;;;10.18;70.05;100495.03;4164517;28;20124;-66
2023/12/30 01:05:47;;;;;;;7.45;1.20;;;;;;;10.21;70.35;100500.28;4162170;28;20048;-66
2023/12/30 01:07:50;;;;;;;3.75;1.45;;;;;;;10.21;70.83;100500.28;4162668;28;20403;-66
2023/12/30 01:09:53;;;;;;;2.78;1.10;;;;;;;10.15;69.81;100500.19;4163771;28;20041;-66
2023/12/30 01:11:56;;;;;;;3.15;1.23;;;;;;;10.18;70.17;100500.25;4162928;28;20128;-66
2023/12/30 01:13:59;;;;;;;2.78;1.00;;;;;;;10.14;70.53;100504.50;4149000;28;20041;-66
2023/12/30 01:16:06;;;;;;;6.28;1.52;;;;;;;10.17;70.71;100503.69;4165175;28;20044;-66
2023/12/30 01:18:10;;;;;;;1.25;0.98;;;;;;;10.18;70.48;100499.34;4165430;28;20065;-65
2023/12/30 01:20:13;;;;;;;1.50;0.80;;;;;;;10.16;70.10;100507.13;4165305;28;20042;-65
2023/12/30 01:22:17;;;;;;;2.67;1.00;;;;;;;10.23;70.58;100510.69;4166540;28;20123;-65
2023/12/30 01:24:20;;;;;;;4.43;1.17;;;;;;;10.29;70.29;100516.00;4165190;28;20519;-66
2023/12/30 01:26:24;;;;;;;4.63;1.35;;;;;;;10.27;70.54;100515.97;4164985;28;20454;-66
2023/12/30 01:28:27;;;;;;;5.45;1.10;;;;;;;10.17;70.00;100514.06;4165191;28;20065;-66
2023/12/30 01:30:29;;;;;;;3.28;1.02;;;;;;;10.14;69.82;100520.06;4165022;28;20547;-65
2023/12/30 01:32:33;;;;;;;3.28;1.17;;;;;;;10.20;70.36;100508.91;4166319;28;20045;-65
2023/12/30 01:34:36;;;;;;;6.75;1.23;;;;;;;10.23;70.09;100514.16;4166229;28;20531;-65
2023/12/30 01:36:39;;;;;;;2.10;0.98;;;;;;;10.28;69.95;100509.94;4164848;28;20041;-65
2023/12/30 01:38:42;;;;;;;1.42;0.90;;;;;;;10.30;70.66;100517.75;4165189;28;20095;-65
2023/12/30 01:40:45;;;;;;;3.88;1.27;;;;;;;10.26;69.97;100523.75;4165064;28;20103;-65
2023/12/30 01:42:48;;;;;;;3.85;0.95;;;;;;;10.22;70.38;100521.94;4165004;28;20049;-65
2023/12/30 01:44:51;;;;;;;9.32;1.55;;;;;;;10.24;70.86;100531.50;4164949;28;20041;-65
2023/12/30 01:46:55;;;;;;;9.20;1.33;;;;;;;10.26;70.46;100523.75;4164829;28;20045;-65
2023/12/30 01:48:59;;;;;;;4.90;1.38;;;;;;;10.24;70.83;100523.72;4164759;28;20092;-65
2023/12/30 01:51:03;;;;;;;8.68;1.50;;;;;;;10.24;71.41;100522.84;4164710;28;20064;-65
2023/12/30 01:53:07;;;;;;;1.80;0.95;;;;;;;10.30;71.23;100518.59;4164656;28;20535;-65
2023/12/30 01:55:10;;;;;;;9.35;1.58;;;;;;;10.34;72.02;100504.00;4164431;28;20057;-65
2023/12/30 01:57:13;;;;;;;5.45;1.42;;;;;;;10.32;71.37;100513.44;4164780;28;20585;-65
2023/12/30 01:59:19;;;;;;;6.05;1.08;;;;;;;10.28;71.82;100511.66;4164769;28;20041;-65
2023/12/30 02:01:22;;;;;;;3.10;1.27;;;;;;;10.26;71.60;100513.34;4148283;28;20077;-65
2023/12/30 02:03:25;;;;;;;4.88;1.40;;;;;;;10.30;71.46;100516.00;4164569;28;20045;-65
2023/12/30 02:05:30;;;;;;;1.90;1.00;;;;;;;10.34;71.50;100516.09;4164224;28;20045;-66
2023/12/30 02:07:33;;;;;;;3.05;1.42;;;;;;;10.23;71.68;100519.34;4164587;28;20112;-65
2023/12/30 02:09:36;;;;;;;4.68;1.48;;;;;;;10.12;72.64;100519.19;4164429;28;20049;-65
2023/12/30 02:11:39;;;;;;;5.85;1.25;;;;;;;10.04;72.95;100533.75;4147954;28;20042;-65
2023/12/30 02:13:41;;;;;;;3.65;1.20;;;;;;;10.04;73.03;100543.28;4164462;28;20129;-66
2023/12/30 02:15:45;;;;;;;1.48;1.00;;;;;;;10.02;72.74;100548.44;4164118;28;20033;-65
2023/12/30 02:17:51;;;;;;;3.67;1.40;;;;;;;10.13;72.84;100554.72;4164366;28;20136;-65
2023/12/30 02:19:54;;;;;;;3.50;1.02;;;;;;;10.00;73.79;100550.13;4164282;28;20044;-66
2023/12/30 02:22:00;;;;;;;4.57;1.70;;;;;;;10.05;73.48;100540.72;4164310;28;20043;-65
2023/12/30 02:24:04;;;;;;;2.72;1.23;;;;;;;10.04;73.21;100562.31;4165168;28;20107;-65
2023/12/30 02:26:08;;;;;;;4.93;1.30;;;;;;;9.87;73.75;100566.34;4164016;28;20044;-65
2023/12/30 02:28:11;;;;;;;3.78;1.40;;;;;;;9.85;74.55;100562.84;4164157;28;20076;-65
2023/12/30 02:30:15;;;;;;;4.13;1.63;;;;;;;9.86;74.73;100564.59;4164156;28;20080;-65
2023/12/30 02:32:18;;;;;;;3.63;1.30;;;;;;;9.93;74.27;100562.16;4165520;28;20069;-65
2023/12/30 02:34:21;;;;;;;5.30;1.42;;;;;;;9.90;74.61;100566.38;4164282;28;20047;-65
2023/12/30 02:36:24;;;;;;;2.80;1.30;;;;;;;9.95;74.21;100575.16;4163999;28;20042;-65
2023/12/30 02:38:27;;;;;;;5.15;1.80;;;;;;;10.04;74.44;100574.44;4164306;28;20477;-65
2023/12/30 02:40:31;;;;;;;8.73;1.55;;;;;;;10.03;74.48;100570.09;4164315;28;20034;-65
2023/12/30 02:42:33;;;;;;;3.10;1.20;;;;;;;10.06;73.62;100567.53;4164264;28;20124;-65
2023/12/30 02:44:36;;;;;;;6.28;2.00;;;;;;;10.15;73.48;100559.94;4164078;28;20143;-65
2023/12/30 02:46:39;;;;;;;4.25;1.50;;;;;;;10.17;73.43;100554.78;4163924;28;20462;-65
2023/12/30 02:48:41;;;;;;;5.47;1.73;;;;;;;10.16;73.46;100559.06;4164088;28;20038;-65
2023/12/30 02:50:44;;;;;;;6.15;1.50;;;;;;;10.18;73.25;100556.50;4163983;28;20128;-69
2023/12/30 02:52:49;;;;;;;5.50;1.35;;;;;;;10.11;73.54;100561.59;4163958;28;20045;-65
2023/12/30 02:54:51;;;;;;;4.95;1.60;;;;;;;10.11;73.13;100556.41;4147419;28;20535;-65
2023/12/30 02:56:57;;;;;;;6.43;1.60;;;;;;;10.13;73.58;100559.03;4163819;28;20072;-65
2023/12/30 02:59:01;;;;;;;5.50;1.70;;;;;;;10.07;72.87;100575.38;4163780;28;20045;-65
2023/12/30 03:01:03;;;;;;;10.60;2.15;;;;;;;10.00;72.26;100570.91;4163708;28;20041;-65
2023/12/30 03:03:06;;;;;;;7.05;1.30;;;;;;;9.96;72.18;100566.53;4163822;28;20092;-65
2023/12/30 03:05:09;;;;;;;5.45;1.58;;;;;;;9.90;72.61;100567.28;4163528;28;20081;-65
2023/12/30 03:07:12;;;;;;;5.22;1.70;;;;;;;9.94;71.82;100571.69;4165002;28;20045;-65
2023/12/30 03:09:15;;;;;;;5.10;1.50;;;;;;;9.94;72.19;100573.41;4163752;28;20045;-65
2023/12/30 03:11:18;;;;;;;4.00;1.20;;;;;;;9.86;71.54;100565.47;4163563;28;20044;-65
2023/12/30 03:13:22;;;;;;;8.68;2.05;;;;;;;10.00;71.58;100568.31;4163651;28;20446;-65
2023/12/30 03:15:26;;;;;;;;;;;;;;;9.91;71.21;100562.97;4163774;28;20072;-65
2023/12/30 03:17:29;;;;;;;7.05;1.75;;;;;;;9.90;71.12;100572.47;4163529;28;19921;-65
2023/12/30 03:19:32;;;;;;;5.70;1.40;;;;;;;9.95;70.84;100569.97;4164615;28;20520;-65
2023/12/30 03:21:35;;;;;;;7.05;1.95;;;;;;;9.96;70.72;100582.97;4163566;28;20071;-65
2023/12/30 03:23:39;;;;;;;11.07;1.58;;;;;;;9.93;70.86;100572.53;4163479;28;20527;-65
2023/12/30 03:25:42;;;;;;;5.00;1.47;;;;;;;9.87;71.04;100575.03;4164429;28;20545;-65
2023/12/30 03:27:45;;;;;;;5.05;1.60;;;;;;;9.91;71.32;100575.94;4163539;28;20116;-65
2023/12/30 03:29:50;;;;;;;4.80;1.52;;;;;;;9.99;71.39;100563.97;4164600;28;20466;-65
2023/12/30 03:31:54;;;;;;;10.30;1.48;;;;;;;10.01;71.24;100549.28;4163395;28;20499;-65
2023/12/30 03:33:57;;;;;;;5.82;2.20;;;;;;;10.06;70.79;100550.25;4163282;28;20131;-65
2023/12/30 03:36:00;;;;;;;5.43;1.60;;;;;;;10.04;70.56;100551.06;4162415;28;20503;-65
2023/12/30 03:38:04;;;;;;;6.13;1.35;;;;;;;10.09;71.10;100557.22;4163360;28;20099;-65
2023/12/30 03:40:08;;;;;;;7.35;1.23;;;;;;;10.15;70.65;100552.16;4163363;28;20067;-65
2023/12/30 03:42:11;;;;;;;4.65;1.30;;;;;;;10.12;70.85;100552.97;4146939;28;20045;-65
2023/12/30 03:44:13;;;;;;;4.20;1.27;;;;;;;10.10;70.97;100551.19;4164405;28;20037;-65
2023/12/30 03:46:18;;;;;;;3.60;1.33;;;;;;;10.16;70.95;100550.41;4162951;28;20042;-65
2023/12/30 03:48:21;;;;;;;3.25;1.10;;;;;;;10.17;70.76;100553.03;4163289;28;20169;-65
2023/12/30 03:50:24;;;;;;;3.05;1.02;;;;;;;10.18;70.98;100553.91;4163087;28;20466;-65
2023/12/30 03:52:27;;;;;;;4.47;1.30;;;;;;;10.19;70.96;100558.25;4163027;28;20038;-66
2023/12/30 03:54:30;;;;;;;5.93;1.50;;;;;;;10.13;71.36;100557.31;4164097;28;20049;-66
2023/12/30 03:56:33;;;;;;;3.10;1.30;;;;;;;10.21;71.66;100551.38;4162860;28;20117;-65
2023/12/30 03:58:36;;;;;;;5.43;1.35;;;;;;;10.28;71.76;100553.25;4163106;28;20480;-66
2023/12/30 04:00:39;;;;;;;3.13;1.30;;;;;;;10.18;71.83;100564.28;4163017;28;20252;-66
2023/12/30 04:02:43;;;;;;;2.33;1.45;;;;;;;10.00;73.03;100578.69;4146558;28;20068;-66
2023/12/30 04:04:46;;;;;;;2.17;1.25;;;;;;;9.91;73.48;100576.81;4162867;28;20605;-66
2023/12/30 04:06:48;;;;;;;4.00;1.30;;;;;;;10.01;73.34;100583.06;4164141;28;20037;-66
2023/12/30 04:08:51;;;;;;;6.00;1.60;;;;;;;10.06;72.79;100583.13;4164103;28;20056;-66
2023/12/30 04:10:54;;;;;;;5.13;1.48;;;;;;;9.95;73.39;100585.53;4162803;28;20131;-66
2023/12/30 04:12:57;;;;;;;8.00;1.58;;;;;;;9.81;73.70;100577.47;4162834;28;20048;-66
2023/12/30 04:15:00;;;;;;;5.10;1.85;;;;;;;9.77;73.73;100579.16;4162631;28;20049;-67
2023/12/30 04:17:03;;;;;;;3.45;1.75;;;;;;;9.80;74.27;100575.75;4162850;28;20045;-66
2023/12/30 04:19:07;;;;;;;4.85;1.65;;;;;;;9.73;74.46;100569.56;4162850;28;20038;-66
2023/12/30 04:21:10;;;;;;;2.67;1.50;;;;;;;9.68;74.79;100581.59;4162803;28;20132;-66
2023/12/30 04:23:13;;;;;;;3.55;1.50;;;;;;;9.67;75.29;100579.81;4162772;28;20037;-66
2023/12/30 04:25:16;;;;;;;6.13;1.70;;;;;;;9.68;74.99;100573.78;4162525;28;20037;-66
2023/12/30 04:27:18;;;;;;;5.13;1.80;;;;;;;9.69;75.16;100567.72;4162923;28;20072;-66
2023/12/30 04:29:22;;;;;;;3.42;1.60;;;;;;;9.69;75.01;100566.88;4162850;28;20535;-66
2023/12/30 04:31:25;;;;;;;4.77;1.70;;;;;;;9.69;75.82;100566.88;4162590;28;20041;-66
2023/12/30 04:33:28;;;;;;;3.42;1.70;;;;;;;9.70;75.13;100572.09;4162746;28;20326;-66
2023/12/30 04:35:33;;;;;;;4.32;1.30;;;;;;;9.72;75.46;100574.72;4162516;28;20140;-66
2023/12/30 04:37:36;;;;;;;5.63;1.50;;;;;;;9.73;75.46;100569.56;4162810;28;20434;-66
2023/12/30 04:39:39;;;;;;;3.95;1.70;;;;;;;9.75;75.96;100572.19;4162779;28;20041;-66
2023/12/30 04:41:42;;;;;;;4.38;1.70;;;;;;;9.76;76.02;100572.19;4146377;28;20038;-66
2023/12/30 04:43:45;;;;;;;3.72;1.70;;;;;;;9.76;76.38;100577.41;4163926;28;20176;-66
2023/12/30 04:45:48;;;;;;;3.38;1.50;;;;;;;9.84;75.40;100571.47;4162443;28;20049;-66
2023/12/30 04:47:50;;;;;;;3.83;1.30;;;;;;;9.83;76.09;100574.91;4165922;28;20103;-66
2023/12/30 04:49:53;;;;;;;3.38;1.48;;;;;;;9.86;75.42;100581.06;4166051;28;20108;-66
2023/12/30 04:51:57;;;;;;;2.53;1.35;;;;;;;9.83;75.38;100586.19;4165902;28;20033;-66
2023/12/30 04:54:00;;;;;;;3.97;1.50;;;;;;;9.82;76.16;100583.56;4165848;28;20049;-66
2023/12/30 04:56:04;;;;;;;3.47;1.38;;;;;;;9.81;76.19;100582.66;4165523;28;20041;-65
2023/12/30 04:58:07;;;;;;;3.17;1.13;;;;;;;9.82;75.89;100583.56;4165866;28;20053;-66
2023/12/30 05:00:10;;;;;;;4.43;1.40;;;;;;;9.78;75.74;100588.72;4166938;28;20041;-66
2023/12/30 05:02:13;;;;;;;8.18;1.80;;;;;;;9.72;75.54;100587.69;4166727;28;20038;-66
2023/12/30 05:04:15;;;;;;;4.38;1.65;;;;;;;9.74;75.53;100586.03;4167446;28;20072;-66
2023/12/30 05:06:19;;;;;;;5.90;1.90;;;;;;;9.76;75.24;100585.19;4166445;28;20427;-66
2023/12/30 05:08:23;;;;;;;4.73;1.67;;;;;;;9.76;74.53;100580.00;4165776;28;20068;-66
2023/12/30 05:10:26;;;;;;;3.13;1.40;;;;;;;9.80;74.24;100580.94;4166946;28;20458;-66
2023/12/30 05:12:28;;;;;;;6.88;1.80;;;;;;;9.86;74.51;100575.00;4165503;28;20084;-66
2023/12/30 05:14:31;;;;;;;2.15;1.35;;;;;;;9.84;73.56;100590.53;4166694;28;20053;-66
2023/12/30 05:16:43;;;;;;;8.15;2.00;;;;;;;9.85;73.97;100588.81;4166491;28;20128;-66
2023/12/30 05:18:46;;;;;;;6.40;1.75;;;;;;;9.86;74.46;100600.97;4166749;28;20049;-66
2023/12/30 05:20:49;;;;;;;4.75;1.40;;;;;;;9.89;74.09;100601.88;4165355;28;20053;-66
2023/12/30 05:22:52;;;;;;;5.20;1.77;;;;;;;9.89;73.31;100591.50;4166536;28;20037;-65
2023/12/30 05:24:56;;;;;;;3.40;1.38;;;;;;;9.94;72.96;100601.97;4166506;28;20121;-66
2023/12/30 05:26:59;;;;;;;5.18;1.77;;;;;;;9.87;73.48;100597.50;4166649;28;20041;-66
2023/12/30 05:29:02;;;;;;;5.35;1.65;;;;;;;9.92;72.97;100603.66;4166552;28;20049;-66
2023/12/30 05:31:05;;;;;;;5.20;1.88;;;;;;;9.92;72.88;100608.88;4166314;28;20034;-66
2023/12/30 05:33:08;;;;;;;8.07;2.08;;;;;;;9.98;72.97;100611.56;4166301;28;20480;-66
2023/12/30 05:35:12;;;;;;;6.75;1.60;;;;;;;9.91;72.99;100610.56;4165891;28;20040;-66
2023/12/30 05:37:14;;;;;;;7.40;1.48;;;;;;;9.95;72.83;100616.72;4166241;28;20048;-66
2023/12/30 05:39:17;;;;;;;6.68;2.00;;;;;;;10.06;72.54;100623.00;4166267;28;20068;-66
2023/12/30 05:41:22;;;;;;;6.68;1.77;;;;;;;10.06;73.04;100623.00;4166180;28;20053;-66
2023/12/30 05:43:24;;;;;;;5.15;1.60;;;;;;;10.09;73.01;100616.94;4165183;28;20047;-66
2023/12/30 05:45:29;;;;;;;5.13;1.60;;;;;;;10.08;73.16;100616.09;4166138;28;20064;-66
2023/12/30 05:47:31;;;;;;;4.50;1.25;;;;;;;10.03;73.26;100609.94;4166279;28;20526;-65
2023/12/30 05:49:36;;;;;;;6.20;1.85;;;;;;;10.05;72.88;100607.38;4166304;28;20038;-65
2023/12/30 05:51:42;;;;;;;4.47;1.80;;;;;;;10.06;73.29;100612.59;4166105;28;20455;-65
2023/12/30 05:53:45;;;;;;;9.13;1.50;;;;;;;9.93;72.70;100616.69;4166270;28;20045;-65
2023/12/30 05:55:48;;;;;;;1.92;1.13;;;;;;;9.95;73.19;100611.50;4165853;28;20060;-64
2023/12/30 05:57:53;;;;;;;7.60;1.80;;;;;;;9.89;73.35;100611.41;4165181;28;20091;-65
2023/12/30 05:59:56;;;;;;;4.43;1.50;;;;;;;9.96;73.42;100618.47;4166145;28;20087;-65
2023/12/30 06:01:59;;;;;;;6.68;1.88;;;;;;;10.03;72.99;100602.16;4166180;28;20266;-64
2023/12/30 06:04:02;;;;;;;7.70;1.70;;;;;;;10.03;73.00;100611.66;4164637;28;20108;-64
2023/12/30 06:06:05;;;;;;;6.65;1.67;;;;;;;9.90;72.67;100614.03;4164412;28;20045;-65
2023/12/30 06:08:08;;;;;;;5.72;1.70;;;;;;;9.95;73.54;100601.13;4165868;28;20053;-65
2023/12/30 06:10:11;;;;;;;3.45;1.52;;;;;;;10.02;73.13;100603.00;4164649;28;20041;-65
2023/12/30 06:12:14;;;;;;;8.02;1.65;;;;;;;10.00;73.33;100609.00;4165836;28;20041;-64
2023/12/30 06:14:19;;;;;;;4.80;1.63;;;;;;;9.99;74.04;100610.72;4164569;28;20069;-64
2023/12/30 06:16:21;;;;;;;8.73;1.77;;;;;;;10.00;74.10;100612.47;4165659;28;20065;-65
2023/12/30 06:18:26;;;;;;;3.42;1.38;;;;;;;10.05;73.87;100612.56;4165772;28;20046;-65
2023/12/30 06:20:29;;;;;;;6.35;1.83;;;;;;;10.00;73.59;100624.59;4165758;28;20065;-65
2023/12/30 06:22:32;;;;;;;5.43;1.50;;;;;;;9.97;73.63;100628.00;4164507;28;20042;-65
2023/12/30 06:24:35;;;;;;;4.55;1.90;;;;;;;9.98;74.35;100632.34;4164326;28;20138;-65
2023/12/30 06:26:39;;;;;;;4.68;1.63;;;;;;;9.93;74.52;100634.00;4165455;28;20037;-65
2023/12/30 06:28:43;;;;;;;6.68;1.63;;;;;;;9.95;74.03;100638.34;4164446;28;20068;-65
2023/12/30 06:30:47;;;;;;;4.07;1.38;;;;;;;9.95;74.67;100634.88;4165561;28;20286;-65
2023/12/30 06:32:49;;;;;;;3.08;1.70;;;;;;;9.91;74.86;100643.47;4165607;28;20037;-65
2023/12/30 06:34:52;;;;;;;4.15;1.50;;;;;;;9.89;74.35;100647.75;4165382;28;20041;-65
2023/12/30 06:36:58;;;;;;;5.72;1.55;;;;;;;9.89;74.43;100645.16;4165282;28;20072;-65
2023/12/30 06:39:01;;;;;;;3.83;1.50;;;;;;;9.78;75.19;100645.81;4165442;28;20045;-65
2023/12/30 06:41:06;;;;;;;3.20;1.40;;;;;;;9.77;74.58;100646.66;4165465;28;20046;-64
2023/12/30 06:43:09;;;;;;;5.35;1.55;;;;;;;9.80;75.46;100645.84;4165345;28;20038;-65
2023/12/30 06:45:11;;;;;;;5.68;1.70;;;;;;;9.78;75.64;100651.00;4165119;28;20084;-65
2023/12/30 06:47:15;;;;;;;4.82;1.50;;;;;;;9.84;75.14;100652.88;4165260;28;20033;-65
2023/12/30 06:49:18;;;;;;;3.15;1.55;;;;;;;9.84;75.71;100646.78;4165273;28;20041;-65
2023/12/30 06:51:21;;;;;;;4.00;1.40;;;;;;;9.78;75.33;100656.22;4165238;28;20380;-65
2023/12/30 06:53:24;;;;;;;4.88;1.88;;;;;;;9.85;75.68;100656.31;4165332;28;20084;-65
2023/12/30 06:55:28;;;;;;;2.13;1.30;;;;;;;9.80;75.84;100661.44;4163765;28;20037;-65
2023/12/30 06:57:41;;;;;;;5.18;1.75;;;;;;;9.80;75.88;100664.03;4165080;28;20059;-65
2023/12/30 06:59:43;;;;;;;5.60;1.70;;;;;;;9.85;75.96;100658.94;4165145;28;20129;-65
2023/12/30 07:01:47;;;;;;;4.00;1.40;;;;;;;9.95;75.66;100655.66;4165059;28;20116;-65
2023/12/30 07:03:51;;;;;;;3.72;1.40;;;;;;;9.87;74.98;100658.13;4165021;28;20450;-65
2023/12/30 07:05:54;;;;;;;2.78;1.45;;;;;;;9.89;75.64;100655.56;4164781;28;20041;-65
2023/12/30 07:07:59;;;;;;;6.28;1.52;;;;;;;9.79;75.40;100655.34;4165135;28;20482;-65
2023/12/30 07:10:03;;;;;;;11.00;2.20;;;;;;;9.76;76.04;100657.00;4163915;28;20502;-65
2023/12/30 07:12:07;;;;;;;3.90;1.67;;;;;;;9.82;75.76;100664.91;4165162;28;20051;-65
2023/12/30 07:14:10;;;;;;;2.45;1.52;;;;;;;9.71;76.14;100658.63;4164912;28;20090;-65
2023/12/30 07:16:15;;;;;;;6.35;1.73;;;;;;;9.67;76.56;100665.47;4163362;28;20449;-65
2023/12/30 07:18:17;;;;;;;6.70;1.85;;;;;;;9.68;76.58;100672.44;4164864;28;20045;-65
2023/12/30 07:20:22;;;;;;;1.92;1.15;;;;;;;9.68;76.67;100669.84;4164897;28;20108;-65
2023/12/30 07:22:25;;;;;;;4.28;1.65;;;;;;;9.75;76.21;100668.22;4164826;28;20448;-65
2023/12/30 07:24:28;;;;;;;2.58;1.25;;;;;;;9.71;76.74;100664.72;4164646;28;20037;-65
2023/12/30 07:26:31;;;;;;;3.92;1.50;;;;;;;9.74;76.26;100663.91;4163121;28;20507;-65
2023/12/30 07:28:32;;;;;;;2.17;1.23;;;;;;;9.77;76.46;100664.84;4162666;28;20502;-65
2023/12/30 07:30:35;;;;;;;3.75;1.60;;;;;;;9.83;76.09;100678.78;4162864;28;20037;-65
2023/12/30 07:32:38;;;;;;;3.78;1.48;;;;;;;9.78;76.03;100670.88;4164401;28;20059;-65
2023/12/30 07:34:41;;;;;;;6.65;1.80;;;;;;;9.63;76.35;100674.03;4163192;28;20408;-65
2023/12/30 07:36:46;;;;;;;4.30;1.60;;;;;;;9.57;76.85;100682.56;4164303;28;20049;-65
2023/12/30 07:38:49;;;;;;;8.02;2.03;;;;;;;9.61;76.60;100674.00;4163271;28;20045;-65
2023/12/30 07:40:51;;;;;;;6.72;1.50;;;;;;;9.65;76.87;100674.06;4163209;28;20403;-65
2023/12/30 07:42:54;;;;;;;5.07;1.42;;;;;;;9.67;76.54;100672.41;4164277;28;20042;-65
2023/12/30 07:44:57;;;;;;;3.88;1.60;;;;;;;9.69;76.50;100681.09;4163010;28;20436;-65
2023/12/30 07:47:00;;;;;;;4.47;1.60;;;;;;;9.64;76.79;100680.09;4163052;28;20147;-65
2023/12/30 07:49:03;;;;;;;7.18;2.55;;;;;;;9.73;76.40;100686.38;4164330;28;20137;-65
2023/12/30 07:51:05;;;;;;;3.53;1.52;;;;;;;9.84;76.24;100684.03;4164286;28;20095;-65
2023/12/30 07:53:09;;;;;;;4.75;1.52;;;;;;;9.78;75.64;100687.38;4164256;28;20133;-65
2023/12/30 07:55:12;;;;;;;5.40;1.83;;;;;;;9.75;76.35;100687.31;4164092;28;20045;-65
2023/12/30 07:57:16;;;;;;;3.92;1.70;;;;;;;9.76;76.35;100683.84;4163144;28;20049;-65
2023/12/30 07:59:18;;;;;;;3.45;1.85;;;;;;;9.77;76.16;100684.75;4164205;28;20443;-65
2023/12/30 08:01:21;;;;;;;7.18;2.00;;;;;;;9.78;76.41;100682.16;4164018;28;20042;-65
2023/12/30 08:03:23;;;;;;;5.28;1.63;;;;;;;9.79;76.44;100686.50;4163038;28;20369;-65
2023/12/30 08:05:26;;;;;;;6.20;1.65;;;;;;;9.82;75.91;100687.44;4163960;28;20076;-65
2023/12/30 08:07:30;;;;;;;5.03;1.40;;;;;;;9.88;76.27;100692.75;4164018;28;20499;-65
2023/12/30 08:09:36;;;;;;;2.88;1.50;;;;;;;9.98;76.23;100693.81;4164137;28;20045;-66
2023/12/30 08:11:39;;;;;;;4.00;1.70;;;;;;;9.84;76.64;100693.50;4164092;28;20045;-66
2023/12/30 08:14:00;;;;;;;3.60;2.17;;;;;;;9.81;76.54;100696.06;4164448;28;20040;-66
2023/12/30 08:16:06;;;;;;;2.90;1.38;;;;;;;9.75;76.82;100704.59;4163796;28;20041;-65
2023/12/30 08:18:09;;;;;;;5.82;1.70;;;;;;;9.79;76.67;100699.47;4162939;28;20045;-65
2023/12/30 08:20:12;;;;;;;5.32;1.70;;;;;;;9.84;76.55;100701.31;4163017;28;20144;-65
2023/12/30 08:22:15;;;;;;;6.00;1.23;;;;;;;9.90;77.04;100691.94;4163610;28;20069;-66
2023/12/30 08:24:19;;;;;;;5.25;1.92;;;;;;;9.92;76.08;100708.41;4164076;28;20041;-67
2023/12/30 08:26:23;;;;;;;3.55;1.40;;;;;;;9.96;76.12;100712.84;4162572;28;20049;-65
2023/12/30 08:28:26;;;;;;;5.40;2.00;;;;;;;10.04;76.62;100715.56;4163978;28;20480;-65
2023/12/30 08:30:29;;;;;;;3.63;1.48;;;;;;;10.12;76.19;100703.63;4163701;28;20041;-66
2023/12/30 08:32:32;;;;;;;3.17;1.20;;;;;;;10.11;75.36;100699.28;4163954;28;20125;-66
2023/12/30 08:34:35;;;;;;;4.70;1.50;;;;;;;10.09;75.89;100702.69;4163845;28;20365;-65
2023/12/30 08:36:38;;;;;;;2.47;1.30;;;;;;;10.09;75.63;100705.28;4163716;28;20034;-65
2023/12/30 08:38:41;;;;;;;3.80;1.73;;;;;;;10.05;76.00;100699.16;4162617;28;20038;-65
2023/12/30 08:40:44;;;;;;;3.78;1.48;;;;;;;10.09;76.15;100707.88;4163902;28;20045;-66
2023/12/30 08:42:48;;;;;;;4.93;1.83;;;;;;;10.10;75.31;100705.34;4163933;28;20045;-65
2023/12/30 08:44:51;;;;;;;3.00;1.20;;;;;;;10.04;74.90;100702.59;4162605;28;20399;-65
2023/12/30 08:46:54;;;;;;;3.22;1.52;;;;;;;10.08;75.42;100693.16;4162417;28;20096;-65
2023/12/30 08:48:57;;;;;;;3.85;1.05;;;;;;;10.04;74.25;100697.41;4163844;28;20037;-66
2023/12/30 08:51:00;;;;;;;4.18;1.33;;;;;;;10.00;75.07;100698.16;4163710;28;20491;-66
2023/12/30 08:53:04;;;;;;;6.03;1.27;;;;;;;9.91;74.90;100692.81;4163710;28;20136;-66
2023/12/30 08:55:11;;;;;;;5.40;1.63;;;;;;;9.90;75.12;100696.22;4163315;28;20049;-66
2023/12/30 08:57:14;;;;;;;4.28;1.67;;;;;;;9.94;75.62;100698.06;4163668;28;20488;-66
2023/12/30 08:59:18;;;;;;;5.57;1.48;;;;;;;9.90;74.73;100704.03;4163670;28;20483;-66
2023/12/30 09:01:21;;;;;;;4.93;1.52;;;;;;;9.94;75.31;100705.84;4163349;28;20041;-67
2023/12/30 09:03:24;;;;;;;4.70;1.50;;;;;;;9.99;75.09;100708.53;4162403;28;20496;-66
2023/12/30 09:05:27;;;;;;;5.38;1.67;;;;;;;10.04;74.63;100701.72;4163369;28;20121;-66
2023/12/30 09:07:30;;;;;;;7.72;1.80;;;;;;;10.10;74.45;100705.34;4165096;28;20308;-65
2023/12/30 09:09:34;;;;;;;10.70;1.80;;;;;;;10.03;75.09;100708.66;4164580;28;20041;-65
2023/12/30 09:11:38;;;;;;;4.70;1.88;;;;;;;10.06;74.39;100710.41;4163639;28;20492;-65
2023/12/30 09:13:41;;;;;;;7.03;2.47;;;;;;;10.06;74.80;100711.31;4163494;28;20483;-65
2023/12/30 09:15:46;;;;;;;6.10;1.70;;;;;;;10.07;74.17;100709.56;4163230;28;20053;-65
2023/12/30 09:17:49;;;;;;;5.07;1.42;;;;;;;10.13;74.29;100714.88;4163633;28;20048;-66
2023/12/30 09:19:52;;;;;;;6.05;1.40;;;;;;;10.09;74.37;100718.25;4163574;28;20589;-66
2023/12/30 09:21:55;;;;;;;6.43;1.40;;;;;;;10.19;74.67;100720.22;4162552;28;20527;-66
2023/12/30 09:23:58;;;;;;;10.48;2.30;;;;;;;10.31;74.39;100722.19;4163446;28;20040;-66
2023/12/30 09:26:01;;;;;;;5.15;1.70;;;;;;;10.36;73.81;100725.78;4163186;28;20475;-66
2023/12/30 09:28:05;;;;;;;3.17;1.35;;;;;;;10.43;73.71;100712.06;4163634;28;20041;-66
2023/12/30 09:30:09;;;;;;;5.05;1.40;;;;;;;10.52;73.88;100718.28;4163597;28;20037;-66
2023/12/30 09:32:13;;;;;;;9.82;1.63;;;;;;;10.46;73.05;100719.91;4162222;28;20041;-66
2023/12/30 09:34:15;;;;;;;;;;;;;;;10.39;72.90;100715.44;4166267;28;20483;-65
2023/12/30 09:36:35;;;;;;;3.60;1.38;;;;;;;10.50;73.43;100726.06;4166319;28;19921;-65